Terminal Aerodrome Forecast
Issued by NWS

Home | Current Version | Previous Version | Text Only | Print | Product List | Glossary On
Versions: 1 2 3 4 5 6 7 8 9 10 11 12 13 14 15 16 17 18 19 20 21 22 23 24 25 26 27 28 29 30 31 32 33 34 35 36
000
FTUS41 KBOX 280215 AAA
TAFFMH
TAF AMD
KFMH 280215Z 2802/2824 33015G26KT 1/4SM +SN OVC003
     FM280400 33019G28KT 2SM -SHSN OVC010
     FM280700 32014G27KT P6SM OVC020
     FM281200 32011G24KT P6SM BKN035=

USA.gov is the U.S. government's official web portal to all federal, state and local government web resources and services.